Time;durP1;ratioP1;P1;durP2;ratioP2;P2;SDS_P1;SDS_P2;PMS_P1;PMS_P2;Temp;Humidity;BMP_temperature;BMP_pressure;BME280_temperature;BME280_humidity;BME280_pressure;Samples;Min_cycle;Max_cycle;Signal;HPM_P1;HPM_P2
2021/08/04 00:00:03;;;;;;;2.50;1.15;;;16.30;99.10;;;;;;5054001;28;20405;-78
2021/08/04 00:02:30;;;;;;;2.95;1.30;;;16.30;99.10;;;;;;5053004;28;20557;-79
2021/08/04 00:04:57;;;;;;;2.42;1.05;;;16.40;99.00;;;;;;5053485;28;20649;-77
2021/08/04 00:07:24;;;;;;;2.97;1.10;;;16.30;99.00;;;;;;5051733;28;20067;-78
2021/08/04 00:09:51;;;;;;;3.20;1.13;;;16.40;99.00;;;;;;5051436;28;20045;-78
2021/08/04 00:12:19;;;;;;;2.38;1.10;;;16.40;99.10;;;;;;5053522;28;20482;-77
2021/08/04 00:14:47;;;;;;;3.25;1.00;;;16.40;99.10;;;;;;5053273;28;20490;-78
2021/08/04 00:17:14;;;;;;;2.58;1.27;;;16.40;99.10;;;;;;5053250;28;20049;-79
2021/08/04 00:19:41;;;;;;;2.53;1.02;;;16.40;99.00;;;;;;5053633;28;20509;-77
2021/08/04 00:22:08;;;;;;;2.42;1.10;;;16.40;99.10;;;;;;5053939;28;20055;-78
2021/08/04 00:24:35;;;;;;;3.00;1.00;;;16.40;98.90;;;;;;5053619;28;20056;-76
2021/08/04 00:27:02;;;;;;;2.45;1.00;;;16.40;98.90;;;;;;5053940;28;20045;-78
2021/08/04 00:29:29;;;;;;;2.83;1.20;;;16.40;98.90;;;;;;5053717;28;20136;-77
2021/08/04 00:31:58;;;;;;;2.90;1.10;;;16.50;98.90;;;;;;5053492;28;20136;-79
2021/08/04 00:34:25;;;;;;;2.30;1.02;;;16.50;99.00;;;;;;5053638;28;20132;-78
2021/08/04 00:36:52;;;;;;;3.00;1.10;;;16.50;98.90;;;;;;5053297;28;20144;-79
2021/08/04 00:39:19;;;;;;;4.25;1.42;;;16.50;98.90;;;;;;5053162;28;20136;-78
2021/08/04 00:41:46;;;;;;;1.80;0.90;;;16.50;99.20;;;;;;5053478;28;20562;-78
2021/08/04 00:44:13;;;;;;;2.85;1.00;;;16.50;98.90;;;;;;5052965;28;20059;-77
2021/08/04 00:46:41;;;;;;;2.30;1.17;;;16.50;98.90;;;;;;5053331;28;20041;-80
2021/08/04 00:49:11;;;;;;;2.50;1.20;;;16.40;98.90;;;;;;5053691;28;20132;-80
2021/08/04 00:51:39;;;;;;;2.78;1.17;;;16.40;99.00;;;;;;5053736;28;20083;-80
2021/08/04 00:54:08;;;;;;;2.80;1.08;;;16.40;99.00;;;;;;5053140;28;20127;-79
2021/08/04 00:56:36;;;;;;;3.20;1.42;;;16.40;99.00;;;;;;5053360;28;20055;-77
2021/08/04 00:59:04;;;;;;;2.53;1.23;;;16.40;99.10;;;;;;5052764;28;20462;-79
2021/08/04 01:01:41;;;;;;;2.03;1.10;;;16.50;99.10;;;;;;5053156;28;20068;-80
2021/08/04 01:04:14;;;;;;;2.78;1.20;;;16.40;99.10;;;;;;5053368;28;20064;-78
2021/08/04 01:06:51;;;;;;;2.85;1.20;;;16.40;99.20;;;;;;5053226;28;20045;-78
2021/08/04 01:09:21;;;;;;;2.75;1.20;;;16.40;99.30;;;;;;5053127;28;20140;-79
2021/08/04 01:11:55;;;;;;;3.65;1.20;;;16.40;99.40;;;;;;5053075;28;20109;-80
2021/08/04 01:14:26;;;;;;;3.15;1.40;;;16.30;99.40;;;;;;5052670;28;20080;-78
2021/08/04 01:16:53;;;;;;;2.67;1.20;;;16.30;99.50;;;;;;5052903;28;20076;-79
2021/08/04 01:19:38;;;;;;;2.47;1.13;;;16.30;99.60;;;;;;5065245;28;20714;-78
2021/08/04 01:22:19;;;;;;;2.72;1.38;;;16.30;99.70;;;;;;5053272;28;20047;-78
2021/08/04 01:24:54;;;;;;;3.10;1.30;;;16.30;99.70;;;;;;5053314;28;20141;-79
2021/08/04 01:27:24;;;;;;;2.83;1.20;;;16.30;99.80;;;;;;5053300;28;20490;-78
2021/08/04 01:29:53;;;;;;;3.22;1.42;;;16.30;99.80;;;;;;5052878;28;20060;-78
2021/08/04 01:32:21;;;;;;;4.25;1.40;;;16.30;99.80;;;;;;5052440;28;20045;-78
2021/08/04 01:34:50;;;;;;;3.42;1.35;;;16.20;99.90;;;;;;5052695;28;20079;-78
2021/08/04 01:37:18;;;;;;;2.85;1.20;;;16.20;99.90;;;;;;5053083;28;20123;-78
2021/08/04 01:39:46;;;;;;;2.78;1.38;;;16.20;99.90;;;;;;5052666;28;20410;-79
2021/08/04 01:42:14;;;;;;;4.28;1.15;;;16.10;99.90;;;;;;5052869;28;20056;-80
2021/08/04 01:44:43;;;;;;;3.13;1.25;;;16.10;99.90;;;;;;5052920;28;20136;-79
2021/08/04 01:47:11;;;;;;;2.55;1.20;;;16.10;99.90;;;;;;5052479;28;20055;-77
2021/08/04 01:49:39;;;;;;;5.70;1.58;;;16.10;99.90;;;;;;5052232;28;20135;-79
2021/08/04 01:52:08;;;;;;;2.90;1.30;;;16.10;99.90;;;;;;5055643;28;20127;-77
2021/08/04 01:54:36;;;;;;;2.90;1.35;;;16.10;99.90;;;;;;5056296;28;20049;-78
2021/08/04 01:57:04;;;;;;;3.63;1.48;;;16.10;99.90;;;;;;5057557;28;20052;-76
2021/08/04 01:59:31;;;;;;;3.63;1.20;;;16.10;99.90;;;;;;5068150;28;20073;-78
2021/08/04 02:02:18;;;;;;;2.67;1.20;;;16.10;99.90;;;;;;5067847;28;20075;-76
2021/08/04 02:04:46;;;;;;;3.40;1.33;;;16.00;99.90;;;;;;5066982;28;20124;-78
2021/08/04 02:07:34;;;;;;;4.03;1.50;;;16.00;99.90;;;;;;5056166;28;20124;-77
2021/08/04 02:10:06;;;;;;;2.72;1.25;;;16.00;99.90;;;;;;5055973;28;20121;-78
2021/08/04 02:12:43;;;;;;;3.28;1.42;;;15.90;99.90;;;;;;5056299;28;20449;-76
2021/08/04 02:15:14;;;;;;;3.10;1.30;;;15.90;99.90;;;;;;5056313;28;20582;-78
2021/08/04 02:17:46;;;;;;;3.50;1.50;;;15.90;99.90;;;;;;5056095;28;20047;-77
2021/08/04 02:20:20;;;;;;;3.20;1.40;;;15.90;99.90;;;;;;5055686;28;20135;-77
2021/08/04 02:22:52;;;;;;;2.83;1.43;;;15.80;99.90;;;;;;5055919;28;20395;-77
2021/08/04 02:25:25;;;;;;;3.03;1.23;;;15.80;99.90;;;;;;5056216;28;20131;-75
2021/08/04 02:27:55;;;;;;;3.10;1.50;;;15.80;99.90;;;;;;5055974;28;20051;-79
2021/08/04 02:30:23;;;;;;;3.00;1.40;;;15.80;99.90;;;;;;5056044;28;20136;-76
2021/08/04 02:32:52;;;;;;;2.80;1.30;;;15.70;99.90;;;;;;5055630;28;20132;-75
2021/08/04 02:35:19;;;;;;;3.35;1.55;;;15.70;99.90;;;;;;5055840;28;20157;-75
2021/08/04 02:37:47;;;;;;;3.25;1.48;;;15.70;99.90;;;;;;5055417;28;20132;-78
2021/08/04 02:40:16;;;;;;;2.75;1.27;;;15.70;99.90;;;;;;5055810;28;20051;-76
2021/08/04 02:42:46;;;;;;;2.75;1.30;;;15.70;99.90;;;;;;5056905;28;20051;-76
2021/08/04 02:45:14;;;;;;;2.85;1.30;;;15.70;99.90;;;;;;5057318;28;20056;-78
2021/08/04 02:47:42;;;;;;;3.13;1.42;;;15.70;99.90;;;;;;5057173;28;20132;-79
2021/08/04 02:50:12;;;;;;;2.85;1.40;;;15.80;99.90;;;;;;5056577;28;20052;-78
2021/08/04 02:52:42;;;;;;;3.70;1.35;;;15.70;99.90;;;;;;5055367;28;20040;-78
2021/08/04 02:55:10;;;;;;;3.60;1.30;;;15.70;99.90;;;;;;5055400;28;20055;-77
2021/08/04 02:57:37;;;;;;;3.03;1.48;;;15.80;99.90;;;;;;5055357;28;20052;-76
2021/08/04 03:00:06;;;;;;;3.50;1.20;;;15.80;99.90;;;;;;5055348;28;20530;-74
2021/08/04 03:02:34;;;;;;;3.10;1.50;;;15.80;99.90;;;;;;5054643;28;20051;-77
2021/08/04 03:05:01;;;;;;;2.83;1.30;;;15.80;99.90;;;;;;5052769;28;20628;-77
2021/08/04 03:07:30;;;;;;;3.17;1.52;;;15.90;99.90;;;;;;5053541;28;20139;-78
2021/08/04 03:09:57;;;;;;;3.47;1.30;;;15.90;99.90;;;;;;5053231;28;20049;-77
2021/08/04 03:12:25;;;;;;;3.00;1.40;;;15.90;99.90;;;;;;5053054;28;20041;-78
2021/08/04 03:14:52;;;;;;;3.80;1.40;;;15.90;99.90;;;;;;5053108;28;20499;-77
2021/08/04 03:17:19;;;;;;;3.00;1.30;;;15.90;99.90;;;;;;5052825;28;20132;-77
2021/08/04 03:19:46;;;;;;;3.28;1.42;;;15.90;99.90;;;;;;5052337;28;20469;-76
2021/08/04 03:22:13;;;;;;;3.00;1.40;;;15.90;99.90;;;;;;5052295;28;20045;-77
2021/08/04 03:24:41;;;;;;;3.05;1.40;;;15.90;99.90;;;;;;5052267;28;20132;-78
2021/08/04 03:27:08;;;;;;;2.63;1.27;;;16.00;99.90;;;;;;5052045;28;20491;-79
2021/08/04 03:29:35;;;;;;;2.95;1.38;;;16.00;99.90;;;;;;5052308;28;20052;-79
2021/08/04 03:32:04;;;;;;;3.53;1.40;;;16.00;99.90;;;;;;5052158;28;20534;-79
2021/08/04 03:34:31;;;;;;;3.40;1.70;;;16.00;99.90;;;;;;5051916;28;20053;-79
2021/08/04 03:36:58;;;;;;;3.17;1.50;;;16.00;99.90;;;;;;5052133;28;20132;-78
2021/08/04 03:39:25;;;;;;;3.60;1.50;;;16.00;99.90;;;;;;5051938;28;20055;-80
2021/08/04 03:41:54;;;;;;;4.40;1.40;;;16.00;99.90;;;;;;5051616;28;20135;-79
2021/08/04 03:44:21;;;;;;;4.47;1.58;;;16.00;99.90;;;;;;5032033;28;20045;-79
2021/08/04 03:46:48;;;;;;;2.63;1.30;;;16.00;99.90;;;;;;5031985;28;20166;-79
2021/08/04 03:49:16;;;;;;;3.30;1.30;;;16.00;99.90;;;;;;5031941;28;20041;-78
2021/08/04 03:51:44;;;;;;;3.72;1.23;;;16.00;99.90;;;;;;5031887;28;20132;-78
2021/08/04 03:54:11;;;;;;;3.08;1.33;;;16.00;99.90;;;;;;5031623;28;20152;-79
2021/08/04 03:56:39;;;;;;;2.50;1.25;;;16.00;99.90;;;;;;5031683;28;20410;-79
2021/08/04 03:59:07;;;;;;;2.92;1.40;;;16.00;99.90;;;;;;5031299;28;20042;-79
2021/08/04 04:01:34;;;;;;;3.25;1.50;;;16.00;99.90;;;;;;5031395;28;20056;-77
2021/08/04 04:04:01;;;;;;;3.47;1.70;;;16.00;99.90;;;;;;5033665;28;20042;-79
2021/08/04 04:06:28;;;;;;;3.67;1.55;;;16.00;99.90;;;;;;5033610;28;20124;-76
2021/08/04 04:08:55;;;;;;;3.42;1.38;;;16.00;99.90;;;;;;5033495;28;20103;-78
2021/08/04 04:11:22;;;;;;;2.92;1.33;;;16.00;99.90;;;;;;5033797;28;20057;-79
2021/08/04 04:13:49;;;;;;;3.80;1.50;;;16.00;99.90;;;;;;5033171;28;20495;-78
2021/08/04 04:16:17;;;;;;;4.13;1.60;;;16.00;99.90;;;;;;5033050;28;20132;-81
2021/08/04 04:18:45;;;;;;;3.97;1.50;;;16.00;99.90;;;;;;5033573;28;20448;-80
2021/08/04 04:21:12;;;;;;;3.33;1.50;;;16.00;99.90;;;;;;5063309;28;20143;-80
2021/08/04 04:23:39;;;;;;;4.00;1.63;;;16.00;99.90;;;;;;5053530;28;20048;-81
2021/08/04 04:26:06;;;;;;;3.58;1.30;;;16.00;99.90;;;;;;5053339;28;20124;-77
2021/08/04 04:28:33;;;;;;;3.03;1.50;;;16.00;99.90;;;;;;5053183;28;20056;-75
2021/08/04 04:31:00;;;;;;;2.95;1.60;;;16.00;99.90;;;;;;5052963;28;20059;-77
2021/08/04 04:33:28;;;;;;;4.72;1.70;;;16.00;99.90;;;;;;5053133;28;20132;-76
2021/08/04 04:35:58;;;;;;;3.25;1.67;;;16.00;99.90;;;;;;5052777;28;20434;-77
2021/08/04 04:38:25;;;;;;;3.17;1.80;;;15.90;99.90;;;;;;5053307;28;20045;-76
2021/08/04 04:40:52;;;;;;;4.57;1.80;;;16.00;99.90;;;;;;5052904;28;20047;-76
2021/08/04 04:43:19;;;;;;;4.05;1.63;;;16.00;99.90;;;;;;5053114;28;20040;-77
2021/08/04 04:45:47;;;;;;;5.03;1.80;;;16.00;99.90;;;;;;5053034;28;20049;-78
2021/08/04 04:48:14;;;;;;;4.25;1.80;;;15.90;99.90;;;;;;5052885;28;20076;-75
2021/08/04 04:50:43;;;;;;;3.80;1.67;;;15.90;99.90;;;;;;5052856;28;20443;-76
2021/08/04 04:53:10;;;;;;;3.28;1.50;;;15.90;99.90;;;;;;5053023;28;20059;-78
2021/08/04 04:55:37;;;;;;;3.25;1.55;;;16.00;99.90;;;;;;5052962;28;20139;-76
2021/08/04 04:58:04;;;;;;;3.15;1.70;;;16.00;99.90;;;;;;5052802;28;20045;-76
2021/08/04 05:00:31;;;;;;;4.65;1.65;;;16.00;99.90;;;;;;5052882;28;20044;-77
2021/08/04 05:02:58;;;;;;;3.25;1.50;;;16.00;99.90;;;;;;5052901;28;20135;-76
2021/08/04 05:05:25;;;;;;;3.63;1.50;;;16.00;99.90;;;;;;5052969;28;20071;-78
2021/08/04 05:07:53;;;;;;;4.40;1.45;;;16.00;99.90;;;;;;5052867;28;20045;-74
2021/08/04 05:10:21;;;;;;;3.35;1.42;;;16.00;99.90;;;;;;5052956;28;20451;-79
2021/08/04 05:12:48;;;;;;;4.30;1.48;;;16.00;99.90;;;;;;5052807;28;20045;-77
2021/08/04 05:15:15;;;;;;;5.30;1.50;;;16.10;99.90;;;;;;5052545;28;20585;-77
2021/08/04 05:17:42;;;;;;;4.35;1.67;;;16.00;99.90;;;;;;5052662;28;20057;-77
2021/08/04 05:20:11;;;;;;;3.83;1.70;;;16.00;99.90;;;;;;5052815;28;20045;-76
2021/08/04 05:22:38;;;;;;;3.83;1.65;;;16.10;99.90;;;;;;5052813;28;20044;-77
2021/08/04 05:25:09;;;;;;;4.47;1.95;;;16.10;99.90;;;;;;5052738;28;20051;-76
2021/08/04 05:27:35;;;;;;;4.53;1.80;;;16.10;99.90;;;;;;5056258;28;20128;-76
2021/08/04 05:30:03;;;;;;;4.10;1.92;;;16.10;99.90;;;;;;5056408;28;20561;-75
2021/08/04 05:32:30;;;;;;;3.75;1.75;;;16.20;99.90;;;;;;5056694;28;20055;-75
2021/08/04 05:34:57;;;;;;;4.47;1.70;;;16.20;99.90;;;;;;5056455;28;20410;-77
2021/08/04 05:37:24;;;;;;;3.67;1.60;;;16.20;99.90;;;;;;5056549;28;20127;-78
2021/08/04 05:39:51;;;;;;;4.30;1.90;;;16.20;99.90;;;;;;5060183;28;20106;-77
2021/08/04 05:42:20;;;;;;;3.95;1.85;;;16.20;99.90;;;;;;5067756;28;20072;-76
2021/08/04 05:44:47;;;;;;;4.95;1.70;;;16.30;99.90;;;;;;5060489;28;20132;-77
2021/08/04 05:47:15;;;;;;;4.07;1.83;;;16.30;99.90;;;;;;5057535;28;20156;-77
2021/08/04 05:49:42;;;;;;;3.35;1.70;;;16.30;99.90;;;;;;5056337;28;20045;-76
2021/08/04 05:52:10;;;;;;;3.90;1.83;;;16.40;99.90;;;;;;5056239;28;20051;-77
2021/08/04 05:54:37;;;;;;;3.28;1.52;;;16.40;99.90;;;;;;5056138;28;20052;-77
2021/08/04 05:57:05;;;;;;;3.13;1.50;;;16.40;99.90;;;;;;5056987;28;20044;-75
2021/08/04 05:59:33;;;;;;;2.88;1.52;;;16.50;99.90;;;;;;5057141;28;20084;-77
2021/08/04 06:02:00;;;;;;;3.60;1.70;;;16.60;99.90;;;;;;5057195;28;20127;-76
2021/08/04 06:04:27;;;;;;;3.13;1.52;;;16.60;99.90;;;;;;5057058;28;20140;-77
2021/08/04 06:06:54;;;;;;;3.30;1.58;;;16.60;99.90;;;;;;5062361;28;20137;-77
2021/08/04 06:09:21;;;;;;;3.78;1.60;;;16.70;99.90;;;;;;5067427;28;20080;-77
2021/08/04 06:11:48;;;;;;;3.22;1.60;;;16.70;99.90;;;;;;5062903;28;20132;-76
2021/08/04 06:14:15;;;;;;;3.97;1.60;;;16.70;99.90;;;;;;5056989;28;20132;-77
2021/08/04 06:16:43;;;;;;;3.03;1.50;;;16.80;99.90;;;;;;5057131;28;20055;-76
2021/08/04 06:19:10;;;;;;;3.30;1.50;;;16.80;99.90;;;;;;5057006;28;20139;-77
2021/08/04 06:21:37;;;;;;;3.50;1.50;;;16.90;99.90;;;;;;5056557;28;20051;-77
2021/08/04 06:24:05;;;;;;;3.33;1.40;;;16.90;99.90;;;;;;5056353;28;20148;-75
2021/08/04 06:26:32;;;;;;;2.92;1.50;;;17.00;99.90;;;;;;5056391;28;20131;-76
2021/08/04 06:28:59;;;;;;;3.38;1.50;;;17.00;99.90;;;;;;5059155;28;20109;-76
2021/08/04 06:31:27;;;;;;;2.88;1.35;;;17.00;99.90;;;;;;5057697;28;20409;-76
2021/08/04 06:33:55;;;;;;;2.75;1.45;;;17.00;99.90;;;;;;5056543;28;20132;-78
2021/08/04 06:36:22;;;;;;;4.45;1.30;;;17.10;99.90;;;;;;5056937;28;20289;-77
2021/08/04 06:38:49;;;;;;;3.25;1.40;;;17.20;99.80;;;;;;5055906;28;20574;-77
2021/08/04 06:41:16;;;;;;;2.92;1.23;;;17.20;99.70;;;;;;5057207;28;20076;-75
2021/08/04 06:43:43;;;;;;;3.88;1.50;;;17.30;99.60;;;;;;5057021;28;20132;-77
2021/08/04 06:46:11;;;;;;;3.53;1.45;;;17.40;99.30;;;;;;5057099;28;20057;-77
2021/08/04 06:48:38;;;;;;;2.90;1.40;;;17.40;99.10;;;;;;5058068;28;20124;-75
2021/08/04 06:51:08;;;;;;;3.75;1.42;;;17.50;98.70;;;;;;5055385;28;20044;-77
2021/08/04 06:53:35;;;;;;;3.55;1.50;;;17.50;98.30;;;;;;5055392;28;20072;-77
2021/08/04 06:56:02;;;;;;;3.85;1.73;;;17.60;97.90;;;;;;5055102;28;20049;-75
2021/08/04 06:58:29;;;;;;;3.63;1.50;;;17.60;97.70;;;;;;5055374;28;20128;-77
2021/08/04 07:00:56;;;;;;;2.70;1.40;;;17.60;97.60;;;;;;5055165;28;20132;-77
2021/08/04 07:03:23;;;;;;;2.60;1.20;;;17.60;97.60;;;;;;5055074;28;20049;-77
2021/08/04 07:05:50;;;;;;;2.55;1.20;;;17.70;97.50;;;;;;5054977;28;20051;-77
2021/08/04 07:08:19;;;;;;;3.00;1.23;;;17.70;97.60;;;;;;5055174;28;20055;-77
2021/08/04 07:10:48;;;;;;;4.43;1.60;;;17.70;97.50;;;;;;5055428;28;20075;-77
2021/08/04 07:13:15;;;;;;;3.92;1.55;;;17.80;97.30;;;;;;5055686;28;20133;-77
2021/08/04 07:15:42;;;;;;;3.03;1.40;;;17.90;97.20;;;;;;5055130;28;20051;-77
2021/08/04 07:18:10;;;;;;;3.78;1.48;;;17.90;97.10;;;;;;5054918;28;20052;-80
2021/08/04 07:20:38;;;;;;;3.40;1.13;;;18.00;97.40;;;;;;5055485;28;20406;-78
2021/08/04 07:23:06;;;;;;;3.30;1.27;;;18.00;97.20;;;;;;5056189;28;20052;-75
2021/08/04 07:25:35;;;;;;;2.95;1.30;;;18.20;97.00;;;;;;5055478;28;20056;-77
2021/08/04 07:28:02;;;;;;;3.10;1.48;;;18.30;97.00;;;;;;5057089;28;20083;-76
2021/08/04 07:30:29;;;;;;;3.05;1.25;;;18.40;96.60;;;;;;5057213;28;20072;-77
2021/08/04 07:32:57;;;;;;;2.90;1.30;;;18.50;96.60;;;;;;5054510;28;20465;-76
2021/08/04 07:35:24;;;;;;;2.90;1.30;;;18.50;96.70;;;;;;5054056;28;20513;-78
2021/08/04 07:37:51;;;;;;;2.83;1.40;;;18.60;96.00;;;;;;5055428;28;20048;-77
2021/08/04 07:40:19;;;;;;;3.25;1.30;;;18.70;95.30;;;;;;5058475;28;20110;-75
2021/08/04 07:42:49;;;;;;;3.20;1.50;;;18.70;95.00;;;;;;5060359;28;20141;-77
2021/08/04 07:45:17;;;;;;;2.83;1.35;;;18.70;94.90;;;;;;5057396;28;20376;-76
2021/08/04 07:47:44;;;;;;;2.70;1.30;;;18.70;94.50;;;;;;5055929;28;20569;-76
2021/08/04 07:50:13;;;;;;;3.28;1.70;;;18.70;94.60;;;;;;5055757;28;20087;-77
2021/08/04 07:52:40;;;;;;;3.60;1.48;;;18.80;94.20;;;;;;5056585;28;20139;-75
2021/08/04 07:55:09;;;;;;;2.83;1.30;;;18.70;94.00;;;;;;5056818;28;20486;-77
2021/08/04 07:57:36;;;;;;;3.28;1.60;;;18.70;94.00;;;;;;5054239;28;20127;-78
2021/08/04 08:00:05;;;;;;;3.00;1.48;;;18.80;94.10;;;;;;5054127;28;20049;-77
2021/08/04 08:02:32;;;;;;;2.60;1.27;;;18.80;94.10;;;;;;5054146;28;20045;-76
2021/08/04 08:04:59;;;;;;;2.88;1.42;;;18.80;94.10;;;;;;5053696;28;20135;-77
2021/08/04 08:07:26;;;;;;;3.22;1.27;;;18.90;94.10;;;;;;5053750;28;20045;-75
2021/08/04 08:09:53;;;;;;;3.60;1.27;;;18.90;93.90;;;;;;5053611;28;20474;-78
2021/08/04 08:12:20;;;;;;;3.28;1.42;;;18.90;93.60;;;;;;5054208;28;20566;-78
2021/08/04 08:14:47;;;;;;;2.55;1.13;;;18.90;93.30;;;;;;5053340;28;20132;-75
2021/08/04 08:17:16;;;;;;;3.25;1.50;;;18.90;93.40;;;;;;5053412;28;20486;-77
2021/08/04 08:19:43;;;;;;;2.88;1.40;;;18.90;93.30;;;;;;5053359;28;20144;-76
2021/08/04 08:22:11;;;;;;;3.03;1.30;;;18.80;93.20;;;;;;5053437;28;20144;-75
2021/08/04 08:24:38;;;;;;;3.35;1.20;;;18.90;93.10;;;;;;5053486;28;20071;-76
2021/08/04 08:27:05;;;;;;;3.58;1.40;;;18.90;93.60;;;;;;5053228;28;20053;-76
2021/08/04 08:29:32;;;;;;;2.45;1.20;;;19.00;93.40;;;;;;5052743;28;20127;-76
2021/08/04 08:31:59;;;;;;;2.80;1.30;;;19.00;93.30;;;;;;5052974;28;20052;-79
2021/08/04 08:34:28;;;;;;;2.83;1.30;;;19.00;93.00;;;;;;5055135;28;20079;-77
2021/08/04 08:36:55;;;;;;;3.28;1.33;;;19.00;93.10;;;;;;5056473;28;20473;-75
2021/08/04 08:39:22;;;;;;;3.00;1.40;;;19.10;93.40;;;;;;5056627;28;20140;-77
2021/08/04 08:41:49;;;;;;;3.05;1.52;;;19.20;93.60;;;;;;5062249;28;20064;-76
2021/08/04 08:44:17;;;;;;;2.72;1.25;;;19.20;93.60;;;;;;5064414;28;20068;-75
2021/08/04 08:46:44;;;;;;;3.10;1.27;;;19.40;93.70;;;;;;5074754;28;20056;-79
2021/08/04 08:49:11;;;;;;;3.10;1.38;;;19.40;93.50;;;;;;5076758;28;20041;-77
2021/08/04 08:51:40;;;;;;;3.42;1.30;;;19.50;93.30;;;;;;5067315;28;20087;-76
2021/08/04 08:54:07;;;;;;;2.50;1.08;;;19.60;93.10;;;;;;5060399;28;20125;-77
2021/08/04 08:56:34;;;;;;;2.88;1.23;;;19.70;92.80;;;;;;5054405;28;20470;-77
2021/08/04 08:59:01;;;;;;;3.35;1.30;;;19.80;92.70;;;;;;5053003;28;20577;-78
2021/08/04 09:01:34;;;;;;;2.72;1.40;;;19.80;92.60;;;;;;5051863;28;20562;-76
2021/08/04 09:04:07;;;;;;;2.60;1.17;;;19.90;92.40;;;;;;5052904;28;20472;-76
2021/08/04 09:06:51;;;;;;;3.15;1.70;;;20.00;92.30;;;;;;5052823;28;20044;-79
2021/08/04 09:09:21;;;;;;;4.28;1.38;;;20.00;92.10;;;;;;5053016;28;20049;-79
2021/08/04 09:11:54;;;;;;;3.17;1.50;;;20.10;92.20;;;;;;5052824;28;20542;-78
2021/08/04 09:14:29;;;;;;;2.75;1.52;;;20.10;92.30;;;;;;5052850;28;20132;-78
2021/08/04 09:17:03;;;;;;;2.88;1.38;;;20.20;92.20;;;;;;5052176;28;20141;-78
2021/08/04 09:19:30;;;;;;;2.90;1.40;;;20.30;92.30;;;;;;5053574;28;20044;-79
2021/08/04 09:22:16;;;;;;;2.80;1.45;;;20.30;92.10;;;;;;5052893;28;20049;-76
2021/08/04 09:25:08;;;;;;;2.63;1.20;;;20.40;91.60;;;;;;5052705;28;20495;-78
2021/08/04 09:27:50;;;;;;;2.55;1.20;;;20.40;91.40;;;;;;5052725;28;20045;-77
2021/08/04 09:30:25;;;;;;;2.78;1.30;;;20.50;91.60;;;;;;5052802;28;20072;-75
2021/08/04 09:32:53;;;;;;;3.13;1.20;;;20.50;91.60;;;;;;5052796;28;20045;-79
2021/08/04 09:35:23;;;;;;;2.67;1.15;;;20.50;91.50;;;;;;5052513;28;20139;-78
2021/08/04 09:37:51;;;;;;;2.83;1.25;;;20.60;91.40;;;;;;5052823;28;20065;-79
2021/08/04 09:40:21;;;;;;;2.30;1.10;;;20.60;91.20;;;;;;5052663;28;20129;-76
2021/08/04 09:42:53;;;;;;;3.08;1.33;;;20.60;91.20;;;;;;5052537;28;20045;-77
2021/08/04 09:45:23;;;;;;;3.08;1.30;;;20.60;91.10;;;;;;5052302;28;20045;-79
2021/08/04 09:48:00;;;;;;;2.60;1.27;;;20.50;90.90;;;;;;5052579;28;20483;-79
2021/08/04 09:50:27;;;;;;;4.10;1.40;;;20.40;91.00;;;;;;5052687;28;20048;-78
2021/08/04 09:52:58;;;;;;;2.67;1.30;;;20.40;91.30;;;;;;5052838;28;20051;-79
2021/08/04 09:55:25;;;;;;;2.72;1.20;;;20.30;91.40;;;;;;5052970;28;20109;-76
2021/08/04 09:57:55;;;;;;;2.50;1.20;;;20.30;91.30;;;;;;5052398;28;20049;-78
2021/08/04 10:00:23;;;;;;;2.90;1.20;;;20.30;91.30;;;;;;5052320;28;20491;-77
2021/08/04 10:02:52;;;;;;;3.42;1.45;;;20.20;91.40;;;;;;5052459;28;20128;-75
2021/08/04 10:05:24;;;;;;;3.80;1.33;;;20.30;91.40;;;;;;5057706;28;20045;-77
2021/08/04 10:08:05;;;;;;;3.58;1.70;;;20.30;91.50;;;;;;5059715;28;20045;-79
2021/08/04 10:10:35;;;;;;;3.10;1.35;;;20.40;91.70;;;;;;5059348;28;20049;-76
2021/08/04 10:13:05;;;;;;;2.60;1.20;;;20.50;91.40;;;;;;5050528;28;20053;-78
2021/08/04 10:15:39;;;;;;;2.28;1.08;;;20.60;91.40;;;;;;5053003;28;20055;-77
2021/08/04 10:18:09;;;;;;;2.53;1.20;;;20.70;91.40;;;;;;5053610;28;20136;-78
2021/08/04 10:20:38;;;;;;;3.67;1.48;;;20.80;91.10;;;;;;5052650;28;20045;-77
2021/08/04 10:23:06;;;;;;;3.30;1.50;;;20.90;90.80;;;;;;5053427;28;20044;-79
2021/08/04 10:25:34;;;;;;;2.85;1.25;;;20.90;90.10;;;;;;5053173;28;20049;-75
2021/08/04 10:28:04;;;;;;;2.78;1.20;;;20.80;90.20;;;;;;5052573;28;20419;-77
2021/08/04 10:30:31;;;;;;;2.15;1.10;;;20.80;90.40;;;;;;5053055;28;20055;-77
2021/08/04 10:32:59;;;;;;;2.20;0.95;;;20.90;90.20;;;;;;5053131;28;20199;-78
2021/08/04 10:35:27;;;;;;;2.50;1.15;;;21.00;90.20;;;;;;5053118;28;20747;-76
2021/08/04 10:37:55;;;;;;;2.70;1.15;;;21.10;90.50;;;;;;5052902;28;20199;-77
2021/08/04 10:40:27;;;;;;;2.95;1.35;;;21.20;90.60;;;;;;5052842;28;20100;-76
2021/08/04 10:42:55;;;;;;;2.15;1.15;;;21.20;90.10;;;;;;5052188;28;20435;-78
2021/08/04 10:45:34;;;;;;;2.45;1.20;;;21.40;90.10;;;;;;5052134;28;20040;-74
2021/08/04 10:48:23;;;;;;;2.92;1.20;;;21.40;89.50;;;;;;5052646;28;20141;-78
2021/08/04 10:51:19;;;;;;;2.17;1.00;;;21.50;89.60;;;;;;5052485;28;20049;-78
2021/08/04 10:54:17;;;;;;;2.80;1.20;;;21.70;89.10;;;;;;5052267;28;20530;-76
2021/08/04 10:57:11;;;;;;;2.75;1.30;;;21.80;88.30;;;;;;5052644;28;20091;-78
2021/08/04 10:59:40;;;;;;;2.85;1.40;;;21.80;87.30;;;;;;5051809;28;20437;-77
2021/08/04 11:02:40;;;;;;;2.92;1.40;;;21.90;88.10;;;;;;5053115;28;20040;-78
2021/08/04 11:05:08;;;;;;;2.55;1.20;;;22.00;88.90;;;;;;5052920;28;20353;-79
2021/08/04 11:07:35;;;;;;;2.95;1.30;;;22.00;88.50;;;;;;5052305;28;20045;-78
2021/08/04 11:10:06;;;;;;;3.55;1.23;;;22.00;87.30;;;;;;5053067;28;20140;-75
2021/08/04 11:12:48;;;;;;;2.65;1.30;;;22.00;86.40;;;;;;5051318;28;20143;-79
2021/08/04 11:15:32;;;;;;;3.10;1.30;;;22.00;84.60;;;;;;5032579;28;20426;-78
2021/08/04 11:18:07;;;;;;;2.10;1.02;;;22.00;85.10;;;;;;5032020;28;20059;-78
2021/08/04 11:20:36;;;;;;;2.67;1.17;;;21.90;85.80;;;;;;5032723;28;20057;-77
2021/08/04 11:23:08;;;;;;;3.28;1.17;;;21.90;86.30;;;;;;5032408;28;20546;-75
2021/08/04 11:25:43;;;;;;;2.55;1.10;;;22.00;86.10;;;;;;5032237;28;20145;-76
2021/08/04 11:28:21;;;;;;;2.70;1.10;;;22.10;85.60;;;;;;5040529;28;20091;-78
2021/08/04 11:30:53;;;;;;;2.55;1.20;;;22.10;85.90;;;;;;5051310;28;20124;-77
2021/08/04 11:33:34;;;;;;;2.20;1.10;;;22.10;86.20;;;;;;5051882;28;20132;-77
2021/08/04 11:36:27;;;;;;;2.30;1.00;;;22.10;86.60;;;;;;5051493;28;20144;-74
2021/08/04 11:39:05;;;;;;;2.90;1.20;;;22.10;86.20;;;;;;5026128;28;20132;-75
2021/08/04 11:41:38;;;;;;;2.42;1.20;;;22.10;85.90;;;;;;5032140;28;20132;-77
2021/08/04 11:44:24;;;;;;;2.60;1.27;;;22.10;87.00;;;;;;5031833;28;20058;-77
2021/08/04 11:46:55;;;;;;;2.35;1.10;;;22.10;86.60;;;;;;5031933;28;20052;-79
2021/08/04 11:49:28;;;;;;;2.45;1.10;;;22.20;86.70;;;;;;5031514;28;20123;-77
2021/08/04 11:51:58;;;;;;;2.45;1.00;;;22.20;87.10;;;;;;5041331;28;20478;-78
2021/08/04 11:54:41;;;;;;;2.95;1.10;;;22.30;86.60;;;;;;5053336;28;20227;-78
2021/08/04 11:57:10;;;;;;;2.75;1.17;;;22.30;86.10;;;;;;5061772;28;20132;-78
2021/08/04 11:59:50;;;;;;;2.90;1.30;;;22.20;84.80;;;;;;5053615;28;20424;-76
2021/08/04 12:02:18;;;;;;;2.38;1.05;;;22.20;84.50;;;;;;5051576;28;20432;-77
2021/08/04 12:04:48;;;;;;;2.03;0.98;;;22.20;83.80;;;;;;5051517;28;20451;-78
2021/08/04 12:07:15;;;;;;;2.28;1.10;;;22.30;83.60;;;;;;5051906;28;20055;-77
2021/08/04 12:09:43;;;;;;;3.78;1.10;;;22.30;83.10;;;;;;5051276;28;20140;-78
2021/08/04 12:12:17;;;;;;;2.03;1.00;;;22.40;83.60;;;;;;5051372;28;20537;-78
2021/08/04 12:14:44;;;;;;;2.35;1.08;;;22.50;83.50;;;;;;5051686;28;20200;-79
2021/08/04 12:17:22;;;;;;;3.20;1.27;;;22.50;83.60;;;;;;5051392;28;20056;-79
2021/08/04 12:19:49;;;;;;;2.60;1.10;;;22.60;84.30;;;;;;5051617;28;20053;-77
2021/08/04 12:22:22;;;;;;;2.20;1.00;;;22.70;84.20;;;;;;5050950;28;20118;-76
2021/08/04 12:24:54;;;;;;;2.80;1.20;;;22.70;83.90;;;;;;5051160;28;20041;-78
2021/08/04 12:27:40;;;;;;;2.47;1.05;;;22.70;83.40;;;;;;5050698;28;20151;-79
2021/08/04 12:30:11;;;;;;;2.88;1.27;;;22.80;83.30;;;;;;5050661;28;20052;-77
2021/08/04 12:32:59;;;;;;;3.13;1.20;;;22.80;83.30;;;;;;5051103;28;20470;-77
2021/08/04 12:35:38;;;;;;;2.38;1.20;;;22.80;83.70;;;;;;5050516;28;20049;-78
2021/08/04 12:38:08;;;;;;;3.33;1.40;;;22.80;83.00;;;;;;5050726;28;20057;-78
2021/08/04 12:40:35;;;;;;;2.20;1.05;;;22.80;82.60;;;;;;5051214;28;20055;-78
2021/08/04 12:43:04;;;;;;;3.67;1.20;;;22.80;81.00;;;;;;5050521;28;20313;-77
2021/08/04 12:45:31;;;;;;;2.78;1.40;;;22.80;80.40;;;;;;5050549;28;20055;-78
2021/08/04 12:48:02;;;;;;;3.60;1.70;;;22.80;80.20;;;;;;5050771;28;20478;-79
2021/08/04 12:50:31;;;;;;;2.63;1.13;;;22.80;79.40;;;;;;5050486;28;20530;-79
2021/08/04 12:52:59;;;;;;;3.13;1.20;;;22.80;79.30;;;;;;5049038;28;20505;-79
2021/08/04 12:55:27;;;;;;;2.28;1.10;;;22.70;80.10;;;;;;5050215;28;20045;-79
2021/08/04 12:58:08;;;;;;;2.70;1.02;;;22.70;80.80;;;;;;5049356;28;20053;-78
2021/08/04 13:00:37;;;;;;;2.08;1.00;;;22.70;81.40;;;;;;5050143;28;20049;-75